createdAt,value
2023-01-07T00:00:22.436Z,101088.25
2023-01-07T00:05:48.940Z,101104.63
2023-01-07T00:10:56.262Z,101087.41
2023-01-07T00:16:08.235Z,101074.41
2023-01-07T00:21:18.417Z,101082.19
2023-01-07T00:26:28.143Z,101100.25
2023-01-07T00:31:39.958Z,101113.09
2023-01-07T00:36:49.118Z,101107.19
2023-01-07T00:42:13.749Z,101113.28
2023-01-07T00:47:22.016Z,101113.19
2023-01-07T00:52:28.948Z,101112.19
2023-01-07T00:57:36.030Z,101113.91
2023-01-07T01:02:46.104Z,101107.78
2023-01-07T01:07:54.609Z,101117.25
2023-01-07T01:13:01.763Z,101112.19
2023-01-07T01:18:10.259Z,101113.13
2023-01-07T01:23:17.881Z,101116.59
2023-01-07T01:28:25.046Z,101114.91
2023-01-07T01:33:33.254Z,101126.97
2023-01-07T01:38:40.514Z,101125.28
2023-01-07T01:43:47.792Z,101124.41
2023-01-07T01:49:02.119Z,101128.75
2023-01-07T01:54:15.473Z,101130.41
2023-01-07T01:59:31.258Z,101126.00
2023-01-07T02:04:43.407Z,101122.59
2023-01-07T02:10:00.472Z,101123.41
2023-01-07T02:15:15.392Z,101114.91
2023-01-07T02:20:56.459Z,101111.53
2023-01-07T02:26:59.849Z,101120.06
2023-01-07T02:32:58.909Z,101109.78
2023-01-07T02:38:14.877Z,101098.63
2023-01-07T02:43:31.841Z,101101.28
2023-01-07T02:48:40.951Z,101108.06
2023-01-07T02:53:49.086Z,101109.84
2023-01-07T02:59:28.230Z,101111.53
2023-01-07T03:04:58.833Z,101116.63
2023-01-07T03:10:13.040Z,101117.63
2023-01-07T03:15:29.102Z,101116.59
2023-01-07T03:20:43.221Z,101112.25
2023-01-07T03:25:52.891Z,101124.34
2023-01-07T03:31:02.094Z,101132.81
2023-01-07T03:36:15.494Z,101122.50
2023-01-07T03:41:39.598Z,101120.91
2023-01-07T03:46:47.175Z,101117.47
2023-01-07T03:51:55.448Z,101121.69
2023-01-07T03:57:02.751Z,101114.91
2023-01-07T04:02:09.436Z,101118.25
2023-01-07T04:07:17.603Z,101123.31
2023-01-07T04:12:24.693Z,101126.63
2023-01-07T04:17:31.767Z,101120.44
2023-01-07T04:22:40.193Z,101129.09
2023-01-07T04:27:48.169Z,101124.91
2023-01-07T04:32:55.187Z,101124.03
2023-01-07T04:38:03.653Z,101132.53
2023-01-07T04:43:11.663Z,101138.47
2023-01-07T04:48:19.876Z,101133.31
2023-01-07T04:53:31.027Z,101140.16
2023-01-07T04:58:37.683Z,101141.91
2023-01-07T05:03:44.616Z,101141.09
2023-01-07T05:08:53.210Z,101153.94
2023-01-07T05:14:02.607Z,101153.94
2023-01-07T05:19:12.978Z,101157.22
2023-01-07T05:24:25.983Z,101161.44
2023-01-07T05:29:33.287Z,101164.84
2023-01-07T05:34:40.685Z,101167.50
2023-01-07T05:39:49.067Z,101174.53
2023-01-07T05:45:00.161Z,101172.91
2023-01-07T05:50:07.994Z,101177.28
2023-01-07T05:55:15.931Z,101169.47
2023-01-07T06:00:22.804Z,101160.13
2023-01-07T06:05:29.682Z,101167.91
2023-01-07T06:10:38.103Z,101174.03
2023-01-07T06:15:44.600Z,101179.19
2023-01-07T06:20:52.558Z,101186.34
2023-01-07T06:26:00.954Z,101195.81
2023-01-07T06:31:07.968Z,101187.22
2023-01-07T06:36:14.732Z,101201.81
2023-01-07T06:41:22.757Z,101205.25
2023-01-07T06:46:29.667Z,101212.16
2023-01-07T06:51:36.192Z,101224.19
2023-01-07T06:56:44.453Z,101225.97
2023-01-07T07:01:51.009Z,101241.47
2023-01-07T07:06:58.066Z,101238.06
2023-01-07T07:12:06.938Z,101240.69
2023-01-07T07:17:13.536Z,101244.19
2023-01-07T07:22:20.075Z,101247.78
2023-01-07T07:27:30.234Z,101252.09
2023-01-07T07:32:36.961Z,101249.59
2023-01-07T07:37:43.885Z,101250.59
2023-01-07T07:43:10.462Z,101254.13
2023-01-07T07:48:18.794Z,101248.22
2023-01-07T07:53:26.571Z,101269.78
2023-01-07T07:58:34.648Z,101261.25
2023-01-07T08:03:41.346Z,101275.97
2023-01-07T08:08:48.023Z,101266.66
2023-01-07T08:13:55.937Z,101259.88
2023-01-07T08:19:02.459Z,101272.03
2023-01-07T08:24:09.586Z,101272.13
2023-01-07T08:29:17.854Z,101268.84
2023-01-07T08:34:25.120Z,101269.81
2023-01-07T08:39:32.035Z,101266.44
2023-01-07T08:44:40.289Z,101256.41
2023-01-07T08:49:47.333Z,101264.19
2023-01-07T08:54:54.631Z,101271.06
2023-01-07T09:00:03.071Z,101276.22
2023-01-07T09:05:12.192Z,101277.31
2023-01-07T09:10:19.274Z,101282.66
2023-01-07T09:15:27.864Z,101279.34
2023-01-07T09:20:34.948Z,101284.50
2023-01-07T09:25:42.714Z,101280.16
2023-01-07T09:30:51.132Z,101283.66
2023-01-07T09:37:07.461Z,101282.97
2023-01-07T09:42:26.847Z,101294.09
2023-01-07T09:47:38.609Z,101290.72
2023-01-07T09:52:50.838Z,101286.53
2023-01-07T09:58:09.141Z,101277.16
2023-01-07T10:03:31.532Z,101277.28
2023-01-07T10:08:55.529Z,101276.53
2023-01-07T10:14:33.472Z,101258.56
2023-01-07T10:19:54.286Z,101259.59
2023-01-07T10:25:13.451Z,101260.44
2023-01-07T10:30:25.620Z,101240.75
2023-01-07T10:35:38.247Z,101240.03
2023-01-07T10:40:53.206Z,101238.38
2023-01-07T10:46:20.576Z,101247.09
2023-01-07T10:52:11.912Z,101243.75
2023-01-07T10:57:22.905Z,101242.03
2023-01-07T11:02:30.106Z,101235.19
2023-01-07T11:07:45.539Z,101237.72
2023-01-07T11:12:55.638Z,101226.56
2023-01-07T11:18:05.043Z,101221.50
2023-01-07T11:23:42.835Z,101220.72
2023-01-07T11:28:55.342Z,101225.06
2023-01-07T11:34:04.615Z,101220.72
2023-01-07T11:39:21.670Z,101198.41
2023-01-07T11:44:29.572Z,101200.91
2023-01-07T11:49:46.685Z,101191.38
2023-01-07T11:54:54.923Z,101184.50
2023-01-07T12:00:17.707Z,101185.44
2023-01-07T12:05:28.001Z,101181.13
2023-01-07T12:10:39.232Z,101181.22
2023-01-07T12:15:54.318Z,101185.59
2023-01-07T12:21:57.693Z,101185.59
2023-01-07T12:27:19.381Z,101186.47
2023-01-07T12:32:46.287Z,101186.47
2023-01-07T12:37:59.077Z,101177.91
2023-01-07T12:43:17.305Z,101176.19
2023-01-07T12:48:33.760Z,101182.25
2023-01-07T12:53:45.878Z,101181.38
2023-01-07T12:58:57.824Z,101177.06
2023-01-07T13:04:16.107Z,101178.72
2023-01-07T13:09:32.993Z,101181.38
2023-01-07T13:14:47.775Z,101182.28
2023-01-07T13:19:55.246Z,101177.16
2023-01-07T13:25:36.191Z,101175.47
2023-01-07T13:30:56.116Z,101170.34
2023-01-07T13:36:16.003Z,101168.59
2023-01-07T13:41:54.285Z,101169.50
2023-01-07T13:47:06.005Z,101168.63
2023-01-07T13:52:20.690Z,101165.22
2023-01-07T13:57:44.942Z,101172.13
2023-01-07T14:03:02.515Z,101171.28
2023-01-07T14:08:09.545Z,101164.38
2023-01-07T14:13:33.526Z,101160.94
2023-01-07T14:19:00.682Z,101163.53
2023-01-07T14:24:59.219Z,101180.75
2023-01-07T14:30:22.143Z,101169.50
2023-01-07T14:35:39.325Z,101179.84
2023-01-07T14:41:09.117Z,101190.16
2023-01-07T14:46:51.329Z,101193.59
2023-01-07T14:52:11.374Z,101202.19
2023-01-07T14:57:34.539Z,101182.38
2023-01-07T15:03:54.578Z,101189.28
2023-01-07T15:09:27.455Z,101193.56
2023-01-07T15:15:01.901Z,101190.13
2023-01-07T15:20:12.484Z,101178.91
2023-01-07T15:25:34.175Z,101190.13
2023-01-07T15:30:54.585Z,101190.13
2023-01-07T15:36:01.507Z,101195.28
2023-01-07T15:41:30.579Z,101196.97
2023-01-07T15:46:43.078Z,101190.06
2023-01-07T15:51:56.125Z,101184.84
2023-01-07T15:57:12.156Z,101188.28
2023-01-07T16:02:26.045Z,101183.03
2023-01-07T16:07:36.494Z,101171.75
2023-01-07T16:12:54.083Z,101179.44
2023-01-07T16:18:03.925Z,101170.75
2023-01-07T16:23:23.594Z,101158.56
2023-01-07T16:28:36.693Z,101155.91
2023-01-07T16:33:45.632Z,101148.94
2023-01-07T16:39:00.052Z,101146.28
2023-01-07T16:44:30.789Z,101151.44
2023-01-07T16:49:38.386Z,101152.22
2023-01-07T16:54:46.733Z,101143.56
2023-01-07T16:59:59.414Z,101139.22
2023-01-07T17:05:24.499Z,101136.56
2023-01-07T17:10:34.549Z,101137.44
2023-01-07T17:15:44.655Z,101141.88
2023-01-07T17:20:54.733Z,101147.13
2023-01-07T17:26:04.265Z,101135.03
2023-01-07T17:31:13.783Z,101146.22
2023-01-07T17:36:24.940Z,101137.63
2023-01-07T17:41:55.799Z,101137.66
2023-01-07T17:47:04.279Z,101142.88
2023-01-07T17:52:12.680Z,101135.13
2023-01-07T17:57:19.284Z,101131.72
2023-01-07T18:02:31.945Z,101135.19
2023-01-07T18:07:42.552Z,101132.63
2023-01-07T18:12:49.708Z,101123.19
2023-01-07T18:17:58.595Z,101116.38
2023-01-07T18:23:05.892Z,101120.72
2023-01-07T18:28:13.577Z,101131.00
2023-01-07T18:33:22.258Z,101123.25
2023-01-07T18:38:29.627Z,101125.00
2023-01-07T18:43:36.578Z,101119.00
2023-01-07T18:48:46.006Z,101124.19
2023-01-07T18:53:53.131Z,101119.09
2023-01-07T18:59:00.468Z,101103.59
2023-01-07T19:04:09.472Z,101106.22
2023-01-07T19:09:16.394Z,101096.72
2023-01-07T19:14:23.696Z,101101.97
2023-01-07T19:19:37.089Z,101096.84
2023-01-07T19:24:51.399Z,101097.78
2023-01-07T19:29:58.184Z,101098.59
2023-01-07T19:35:10.143Z,101098.63
2023-01-07T19:40:18.697Z,101104.63
2023-01-07T19:45:26.540Z,101099.44
2023-01-07T19:50:35.547Z,101111.53
2023-01-07T19:55:42.873Z,101111.59
2023-01-07T20:00:50.259Z,101097.00
2023-01-07T20:06:08.510Z,101087.56
2023-01-07T20:11:18.727Z,101078.97
2023-01-07T20:16:28.471Z,101072.97
2023-01-07T20:21:37.681Z,101079.00
2023-01-07T20:26:44.475Z,101068.66
2023-01-07T20:31:51.904Z,101066.97
2023-01-07T20:37:00.722Z,101062.69
2023-01-07T20:42:07.676Z,101060.97
2023-01-07T20:47:14.661Z,101054.97
2023-01-07T20:52:23.189Z,101057.53
2023-01-07T20:57:30.192Z,101061.03
2023-01-07T21:02:36.980Z,101049.78
2023-01-07T21:07:46.808Z,101064.44
2023-01-07T21:12:53.974Z,101054.94
2023-01-07T21:18:01.116Z,101058.38
2023-01-07T21:23:09.841Z,101057.50
2023-01-07T21:28:17.972Z,101038.53
2023-01-07T21:33:25.100Z,101046.28
2023-01-07T21:38:33.769Z,101047.16
2023-01-07T21:43:41.346Z,101040.28
2023-01-07T21:48:48.369Z,101048.03
2023-01-07T21:53:58.604Z,101042.84
2023-01-07T21:59:08.353Z,101048.06
2023-01-07T22:04:15.396Z,101039.41
2023-01-07T22:09:24.711Z,101038.56
2023-01-07T22:14:32.138Z,101025.63
2023-01-07T22:19:38.670Z,101025.63
2023-01-07T22:24:46.937Z,101023.03
2023-01-07T22:29:55.344Z,101024.78
2023-01-07T22:35:02.451Z,101023.06
2023-01-07T22:40:13.195Z,101024.75
2023-01-07T22:45:24.310Z,101022.16
2023-01-07T22:50:31.530Z,101013.53
2023-01-07T22:55:41.136Z,101018.75
2023-01-07T23:01:14.820Z,101006.69
2023-01-07T23:06:22.000Z,101004.94
2023-01-07T23:11:48.233Z,100992.88
2023-01-07T23:16:55.594Z,100985.13
2023-01-07T23:22:02.817Z,100985.13
2023-01-07T23:27:11.131Z,100986.84
2023-01-07T23:32:17.664Z,100975.66
2023-01-07T23:37:24.744Z,100973.06
2023-01-07T23:42:33.649Z,100967.88
2023-01-07T23:47:40.612Z,100961.00
2023-01-07T23:52:47.817Z,100954.97
2023-01-07T23:57:56.545Z,100948.06
